sensor_id;sensor_type;location;lat;lon;timestamp;P1;durP1;ratioP1;P2;durP2;ratioP2
18206;SDS011;9229;52.354;20.886;2024-03-02T00:36:09;57.15;;;24.35;;
18206;SDS011;9229;52.354;20.886;2024-03-02T00:47:31;51.25;;;22.65;;
18206;SDS011;9229;52.354;20.886;2024-03-02T00:53:23;49.70;;;23.88;;
18206;SDS011;9229;52.354;20.886;2024-03-02T00:58:39;54.47;;;24.02;;
18206;SDS011;9229;52.354;20.886;2024-03-02T01:03:44;63.58;;;25.35;;
18206;SDS011;9229;52.354;20.886;2024-03-02T01:20:16;52.50;;;23.48;;
18206;SDS011;9229;52.354;20.886;2024-03-02T01:37:39;46.95;;;21.75;;
18206;SDS011;9229;52.354;20.886;2024-03-02T01:49:08;50.65;;;23.23;;
18206;SDS011;9229;52.354;20.886;2024-03-02T02:05:41;52.58;;;22.92;;
18206;SDS011;9229;52.354;20.886;2024-03-02T02:11:07;52.17;;;23.65;;
18206;SDS011;9229;52.354;20.886;2024-03-02T02:16:21;47.60;;;23.95;;
18206;SDS011;9229;52.354;20.886;2024-03-02T02:27:32;55.38;;;22.83;;
18206;SDS011;9229;52.354;20.886;2024-03-02T02:32:40;53.60;;;23.40;;
18206;SDS011;9229;52.354;20.886;2024-03-02T02:37:47;56.13;;;24.27;;
18206;SDS011;9229;52.354;20.886;2024-03-02T02:42:57;49.53;;;23.02;;
18206;SDS011;9229;52.354;20.886;2024-03-02T02:48:00;46.83;;;22.17;;
18206;SDS011;9229;52.354;20.886;2024-03-02T02:53:07;51.47;;;23.30;;
18206;SDS011;9229;52.354;20.886;2024-03-02T02:58:44;50.22;;;22.05;;
18206;SDS011;9229;52.354;20.886;2024-03-02T03:04:06;51.38;;;21.75;;
18206;SDS011;9229;52.354;20.886;2024-03-02T03:09:15;42.15;;;20.67;;
18206;SDS011;9229;52.354;20.886;2024-03-02T03:14:24;43.28;;;22.20;;
18206;SDS011;9229;52.354;20.886;2024-03-02T03:19:29;45.22;;;22.15;;
18206;SDS011;9229;52.354;20.886;2024-03-02T03:24:39;49.20;;;22.20;;
18206;SDS011;9229;52.354;20.886;2024-03-02T03:29:51;43.33;;;21.63;;
18206;SDS011;9229;52.354;20.886;2024-03-02T03:35:20;44.05;;;21.58;;
18206;SDS011;9229;52.354;20.886;2024-03-02T03:40:37;45.03;;;20.75;;
18206;SDS011;9229;52.354;20.886;2024-03-02T03:45:51;44.35;;;19.67;;
18206;SDS011;9229;52.354;20.886;2024-03-02T03:51:16;39.67;;;19.05;;
18206;SDS011;9229;52.354;20.886;2024-03-02T03:56:29;43.10;;;19.80;;
18206;SDS011;9229;52.354;20.886;2024-03-02T04:07:18;42.33;;;19.98;;
18206;SDS011;9229;52.354;20.886;2024-03-02T04:12:31;42.83;;;19.33;;
18206;SDS011;9229;52.354;20.886;2024-03-02T04:17:53;39.15;;;19.70;;
18206;SDS011;9229;52.354;20.886;2024-03-02T04:23:20;43.78;;;19.98;;
18206;SDS011;9229;52.354;20.886;2024-03-02T04:28:41;44.05;;;19.30;;
18206;SDS011;9229;52.354;20.886;2024-03-02T04:33:49;44.30;;;19.50;;
18206;SDS011;9229;52.354;20.886;2024-03-02T04:39:14;45.38;;;20.73;;
18206;SDS011;9229;52.354;20.886;2024-03-02T04:44:30;48.92;;;21.40;;
18206;SDS011;9229;52.354;20.886;2024-03-02T04:49:56;40.03;;;19.83;;
18206;SDS011;9229;52.354;20.886;2024-03-02T04:55:29;47.58;;;20.05;;
18206;SDS011;9229;52.354;20.886;2024-03-02T05:00:56;40.15;;;19.02;;
18206;SDS011;9229;52.354;20.886;2024-03-02T05:06:09;46.47;;;21.23;;
18206;SDS011;9229;52.354;20.886;2024-03-02T05:11:27;43.67;;;20.40;;
18206;SDS011;9229;52.354;20.886;2024-03-02T05:16:52;47.38;;;20.77;;
18206;SDS011;9229;52.354;20.886;2024-03-02T05:22:04;47.30;;;21.58;;
18206;SDS011;9229;52.354;20.886;2024-03-02T05:27:26;42.42;;;19.95;;
18206;SDS011;9229;52.354;20.886;2024-03-02T05:32:41;53.30;;;21.42;;
18206;SDS011;9229;52.354;20.886;2024-03-02T05:38:02;47.25;;;20.45;;
18206;SDS011;9229;52.354;20.886;2024-03-02T05:43:07;44.80;;;21.15;;
18206;SDS011;9229;52.354;20.886;2024-03-02T05:48:17;54.45;;;22.13;;
18206;SDS011;9229;52.354;20.886;2024-03-02T05:53:30;47.00;;;21.42;;
18206;SDS011;9229;52.354;20.886;2024-03-02T05:58:45;46.03;;;19.77;;
18206;SDS011;9229;52.354;20.886;2024-03-02T06:04:10;50.10;;;20.80;;
18206;SDS011;9229;52.354;20.886;2024-03-02T06:09:30;45.70;;;21.45;;
18206;SDS011;9229;52.354;20.886;2024-03-02T06:14:38;45.20;;;20.05;;
18206;SDS011;9229;52.354;20.886;2024-03-02T06:19:46;52.88;;;21.23;;
18206;SDS011;9229;52.354;20.886;2024-03-02T06:30:16;48.85;;;20.25;;
18206;SDS011;9229;52.354;20.886;2024-03-02T06:35:41;47.30;;;22.05;;
18206;SDS011;9229;52.354;20.886;2024-03-02T06:40:55;49.33;;;20.50;;
18206;SDS011;9229;52.354;20.886;2024-03-02T06:46:00;47.10;;;21.13;;
18206;SDS011;9229;52.354;20.886;2024-03-02T06:51:03;49.40;;;21.17;;
18206;SDS011;9229;52.354;20.886;2024-03-02T06:56:07;49.95;;;21.88;;
18206;SDS011;9229;52.354;20.886;2024-03-02T07:01:09;49.28;;;20.55;;
18206;SDS011;9229;52.354;20.886;2024-03-02T07:06:11;43.53;;;20.85;;
18206;SDS011;9229;52.354;20.886;2024-03-02T07:11:14;42.42;;;19.60;;
18206;SDS011;9229;52.354;20.886;2024-03-02T07:16:16;47.60;;;20.10;;
18206;SDS011;9229;52.354;20.886;2024-03-02T07:28:25;45.83;;;20.05;;
18206;SDS011;9229;52.354;20.886;2024-03-02T07:33:41;37.63;;;18.58;;
18206;SDS011;9229;52.354;20.886;2024-03-02T07:38:59;44.15;;;19.98;;
18206;SDS011;9229;52.354;20.886;2024-03-02T07:44:24;47.90;;;19.27;;
18206;SDS011;9229;52.354;20.886;2024-03-02T07:49:48;43.65;;;18.90;;
18206;SDS011;9229;52.354;20.886;2024-03-02T07:55:14;41.17;;;19.98;;
18206;SDS011;9229;52.354;20.886;2024-03-02T08:00:26;38.70;;;17.88;;
18206;SDS011;9229;52.354;20.886;2024-03-02T08:05:41;43.85;;;18.25;;
18206;SDS011;9229;52.354;20.886;2024-03-02T08:10:49;45.03;;;19.85;;
18206;SDS011;9229;52.354;20.886;2024-03-02T08:21:54;46.05;;;18.75;;
18206;SDS011;9229;52.354;20.886;2024-03-02T08:27:24;39.33;;;18.23;;
18206;SDS011;9229;52.354;20.886;2024-03-02T08:51:02;37.28;;;18.30;;
18206;SDS011;9229;52.354;20.886;2024-03-02T09:02:25;39.40;;;17.75;;
18206;SDS011;9229;52.354;20.886;2024-03-02T09:07:53;35.95;;;17.38;;
18206;SDS011;9229;52.354;20.886;2024-03-02T09:13:24;37.58;;;16.88;;
18206;SDS011;9229;52.354;20.886;2024-03-02T09:18:28;40.10;;;17.80;;
18206;SDS011;9229;52.354;20.886;2024-03-02T09:23:45;42.20;;;17.55;;
18206;SDS011;9229;52.354;20.886;2024-03-02T09:28:56;42.85;;;18.02;;
18206;SDS011;9229;52.354;20.886;2024-03-02T09:34:16;39.20;;;17.35;;
18206;SDS011;9229;52.354;20.886;2024-03-02T09:39:23;38.17;;;17.00;;
18206;SDS011;9229;52.354;20.886;2024-03-02T09:44:34;36.03;;;17.10;;
18206;SDS011;9229;52.354;20.886;2024-03-02T09:49:54;36.78;;;17.25;;
18206;SDS011;9229;52.354;20.886;2024-03-02T09:57:51;41.35;;;17.33;;
18206;SDS011;9229;52.354;20.886;2024-03-02T10:01:47;35.72;;;16.67;;
18206;SDS011;9229;52.354;20.886;2024-03-02T10:13:57;37.38;;;16.83;;
18206;SDS011;9229;52.354;20.886;2024-03-02T10:19:19;39.47;;;17.77;;
18206;SDS011;9229;52.354;20.886;2024-03-02T10:24:22;33.20;;;15.75;;
18206;SDS011;9229;52.354;20.886;2024-03-02T10:29:28;33.63;;;16.65;;
18206;SDS011;9229;52.354;20.886;2024-03-02T10:34:32;32.42;;;17.15;;
18206;SDS011;9229;52.354;20.886;2024-03-02T10:39:34;35.85;;;17.42;;
18206;SDS011;9229;52.354;20.886;2024-03-02T10:44:37;34.88;;;17.80;;
18206;SDS011;9229;52.354;20.886;2024-03-02T10:49:44;33.72;;;17.25;;
18206;SDS011;9229;52.354;20.886;2024-03-02T10:54:59;39.67;;;17.08;;
18206;SDS011;9229;52.354;20.886;2024-03-02T11:00:02;34.10;;;16.27;;
18206;SDS011;9229;52.354;20.886;2024-03-02T11:05:07;37.55;;;18.08;;
18206;SDS011;9229;52.354;20.886;2024-03-02T11:10:12;38.65;;;18.38;;
18206;SDS011;9229;52.354;20.886;2024-03-02T11:15:16;40.85;;;17.48;;
18206;SDS011;9229;52.354;20.886;2024-03-02T11:20:21;35.03;;;17.58;;
18206;SDS011;9229;52.354;20.886;2024-03-02T11:25:25;45.72;;;17.58;;
18206;SDS011;9229;52.354;20.886;2024-03-02T11:35:56;42.00;;;17.35;;
18206;SDS011;9229;52.354;20.886;2024-03-02T11:40:59;39.35;;;17.55;;
18206;SDS011;9229;52.354;20.886;2024-03-02T11:46:03;41.25;;;18.08;;
18206;SDS011;9229;52.354;20.886;2024-03-02T11:51:09;67.15;;;17.13;;
18206;SDS011;9229;52.354;20.886;2024-03-02T11:56:13;44.25;;;16.83;;
18206;SDS011;9229;52.354;20.886;2024-03-02T12:01:16;43.42;;;17.10;;
18206;SDS011;9229;52.354;20.886;2024-03-02T12:06:21;39.13;;;18.27;;
18206;SDS011;9229;52.354;20.886;2024-03-02T12:11:24;41.70;;;17.45;;
18206;SDS011;9229;52.354;20.886;2024-03-02T12:16:26;43.60;;;17.38;;
18206;SDS011;9229;52.354;20.886;2024-03-02T12:21:30;36.08;;;16.08;;
18206;SDS011;9229;52.354;20.886;2024-03-02T12:26:37;41.00;;;17.33;;
18206;SDS011;9229;52.354;20.886;2024-03-02T12:31:41;38.42;;;17.65;;
18206;SDS011;9229;52.354;20.886;2024-03-02T12:36:46;38.90;;;18.27;;
18206;SDS011;9229;52.354;20.886;2024-03-02T12:41:50;43.35;;;19.90;;
18206;SDS011;9229;52.354;20.886;2024-03-02T12:46:54;43.63;;;19.42;;
18206;SDS011;9229;52.354;20.886;2024-03-02T12:51:59;39.83;;;19.90;;
18206;SDS011;9229;52.354;20.886;2024-03-02T12:57:04;47.83;;;19.85;;
18206;SDS011;9229;52.354;20.886;2024-03-02T13:02:06;44.00;;;20.73;;
18206;SDS011;9229;52.354;20.886;2024-03-02T13:07:15;45.38;;;22.13;;
18206;SDS011;9229;52.354;20.886;2024-03-02T13:12:17;45.90;;;23.13;;
18206;SDS011;9229;52.354;20.886;2024-03-02T13:17:21;46.70;;;23.45;;
18206;SDS011;9229;52.354;20.886;2024-03-02T13:22:25;48.70;;;24.63;;
18206;SDS011;9229;52.354;20.886;2024-03-02T13:27:27;49.60;;;24.17;;
18206;SDS011;9229;52.354;20.886;2024-03-02T13:32:32;48.90;;;23.85;;
18206;SDS011;9229;52.354;20.886;2024-03-02T13:37:36;52.67;;;24.83;;
18206;SDS011;9229;52.354;20.886;2024-03-02T13:42:38;51.65;;;25.58;;
18206;SDS011;9229;52.354;20.886;2024-03-02T13:47:40;52.70;;;24.58;;
18206;SDS011;9229;52.354;20.886;2024-03-02T13:52:46;47.95;;;23.90;;
18206;SDS011;9229;52.354;20.886;2024-03-02T13:57:48;46.08;;;23.10;;
18206;SDS011;9229;52.354;20.886;2024-03-02T14:02:51;45.33;;;22.83;;
18206;SDS011;9229;52.354;20.886;2024-03-02T14:07:55;45.58;;;22.73;;
18206;SDS011;9229;52.354;20.886;2024-03-02T14:12:59;47.20;;;22.10;;
18206;SDS011;9229;52.354;20.886;2024-03-02T14:18:02;51.45;;;22.98;;
18206;SDS011;9229;52.354;20.886;2024-03-02T14:23:06;69.60;;;24.52;;
18206;SDS011;9229;52.354;20.886;2024-03-02T14:28:10;44.67;;;22.80;;
18206;SDS011;9229;52.354;20.886;2024-03-02T14:33:12;48.17;;;21.45;;
18206;SDS011;9229;52.354;20.886;2024-03-02T14:38:21;54.00;;;21.45;;
18206;SDS011;9229;52.354;20.886;2024-03-02T14:43:24;47.35;;;23.00;;
18206;SDS011;9229;52.354;20.886;2024-03-02T14:48:26;47.33;;;22.67;;
18206;SDS011;9229;52.354;20.886;2024-03-02T14:53:32;47.78;;;22.83;;
18206;SDS011;9229;52.354;20.886;2024-03-02T14:58:34;49.33;;;24.42;;
18206;SDS011;9229;52.354;20.886;2024-03-02T15:03:37;51.72;;;24.08;;
18206;SDS011;9229;52.354;20.886;2024-03-02T15:08:43;52.88;;;23.45;;
18206;SDS011;9229;52.354;20.886;2024-03-02T15:13:47;50.13;;;23.60;;
18206;SDS011;9229;52.354;20.886;2024-03-02T15:18:49;46.60;;;23.95;;
18206;SDS011;9229;52.354;20.886;2024-03-02T15:23:53;51.22;;;25.13;;
18206;SDS011;9229;52.354;20.886;2024-03-02T15:28:55;53.92;;;25.20;;
18206;SDS011;9229;52.354;20.886;2024-03-02T15:33:59;49.90;;;25.65;;
18206;SDS011;9229;52.354;20.886;2024-03-02T15:39:03;47.53;;;24.23;;
18206;SDS011;9229;52.354;20.886;2024-03-02T15:44:08;49.30;;;24.83;;
18206;SDS011;9229;52.354;20.886;2024-03-02T15:49:10;54.00;;;25.38;;
18206;SDS011;9229;52.354;20.886;2024-03-02T15:54:17;55.22;;;23.80;;
18206;SDS011;9229;52.354;20.886;2024-03-02T15:59:19;51.78;;;24.05;;
18206;SDS011;9229;52.354;20.886;2024-03-02T16:04:21;54.80;;;25.70;;
18206;SDS011;9229;52.354;20.886;2024-03-02T16:09:24;55.63;;;24.13;;
18206;SDS011;9229;52.354;20.886;2024-03-02T16:14:27;56.75;;;24.83;;
18206;SDS011;9229;52.354;20.886;2024-03-02T16:19:32;55.38;;;25.45;;
18206;SDS011;9229;52.354;20.886;2024-03-02T16:24:44;52.25;;;25.20;;
18206;SDS011;9229;52.354;20.886;2024-03-02T16:29:46;50.10;;;24.80;;
18206;SDS011;9229;52.354;20.886;2024-03-02T16:34:51;58.45;;;25.75;;
18206;SDS011;9229;52.354;20.886;2024-03-02T16:39:56;51.95;;;24.75;;
18206;SDS011;9229;52.354;20.886;2024-03-02T16:44:58;53.15;;;25.02;;
18206;SDS011;9229;52.354;20.886;2024-03-02T16:50:03;53.08;;;26.05;;
18206;SDS011;9229;52.354;20.886;2024-03-02T16:55:18;52.45;;;26.90;;
18206;SDS011;9229;52.354;20.886;2024-03-02T17:00:20;61.28;;;26.75;;
18206;SDS011;9229;52.354;20.886;2024-03-02T17:05:22;59.63;;;27.88;;
18206;SDS011;9229;52.354;20.886;2024-03-02T17:10:42;56.65;;;28.15;;
18206;SDS011;9229;52.354;20.886;2024-03-02T17:15:46;58.97;;;28.05;;
18206;SDS011;9229;52.354;20.886;2024-03-02T17:20:48;60.20;;;26.33;;
18206;SDS011;9229;52.354;20.886;2024-03-02T17:25:51;57.13;;;27.08;;
18206;SDS011;9229;52.354;20.886;2024-03-02T17:30:53;56.00;;;27.10;;
18206;SDS011;9229;52.354;20.886;2024-03-02T17:35:55;56.75;;;27.83;;
18206;SDS011;9229;52.354;20.886;2024-03-02T17:40:59;64.25;;;27.42;;
18206;SDS011;9229;52.354;20.886;2024-03-02T17:46:02;53.53;;;25.30;;
18206;SDS011;9229;52.354;20.886;2024-03-02T17:51:05;54.83;;;24.40;;
18206;SDS011;9229;52.354;20.886;2024-03-02T17:56:10;53.70;;;25.33;;
18206;SDS011;9229;52.354;20.886;2024-03-02T18:01:12;51.33;;;24.85;;
18206;SDS011;9229;52.354;20.886;2024-03-02T18:06:15;50.78;;;23.48;;
18206;SDS011;9229;52.354;20.886;2024-03-02T18:11:19;49.38;;;22.98;;
18206;SDS011;9229;52.354;20.886;2024-03-02T18:16:24;54.35;;;23.95;;
18206;SDS011;9229;52.354;20.886;2024-03-02T18:21:26;64.43;;;29.85;;
18206;SDS011;9229;52.354;20.886;2024-03-02T18:26:34;64.95;;;28.60;;
18206;SDS011;9229;52.354;20.886;2024-03-02T18:31:37;52.00;;;24.67;;
18206;SDS011;9229;52.354;20.886;2024-03-02T18:36:39;45.95;;;23.58;;
18206;SDS011;9229;52.354;20.886;2024-03-02T18:41:42;47.03;;;22.60;;
18206;SDS011;9229;52.354;20.886;2024-03-02T18:46:45;49.40;;;23.77;;
18206;SDS011;9229;52.354;20.886;2024-03-02T18:51:46;46.67;;;24.85;;
18206;SDS011;9229;52.354;20.886;2024-03-02T18:56:50;50.58;;;23.95;;
18206;SDS011;9229;52.354;20.886;2024-03-02T19:01:54;53.53;;;24.48;;
18206;SDS011;9229;52.354;20.886;2024-03-02T19:06:56;51.08;;;22.77;;
18206;SDS011;9229;52.354;20.886;2024-03-02T19:11:59;43.53;;;22.80;;
18206;SDS011;9229;52.354;20.886;2024-03-02T19:17:01;43.03;;;22.80;;
18206;SDS011;9229;52.354;20.886;2024-03-02T19:22:03;43.63;;;23.17;;
18206;SDS011;9229;52.354;20.886;2024-03-02T19:27:07;48.50;;;23.85;;
18206;SDS011;9229;52.354;20.886;2024-03-02T19:32:09;44.75;;;22.50;;
18206;SDS011;9229;52.354;20.886;2024-03-02T19:37:11;51.13;;;23.40;;
18206;SDS011;9229;52.354;20.886;2024-03-02T19:42:15;43.70;;;23.33;;
18206;SDS011;9229;52.354;20.886;2024-03-02T19:47:17;44.97;;;22.88;;
18206;SDS011;9229;52.354;20.886;2024-03-02T19:52:19;50.47;;;22.30;;
18206;SDS011;9229;52.354;20.886;2024-03-02T19:57:23;51.92;;;23.38;;
18206;SDS011;9229;52.354;20.886;2024-03-02T20:02:25;49.65;;;23.30;;
18206;SDS011;9229;52.354;20.886;2024-03-02T20:07:28;48.35;;;23.65;;
18206;SDS011;9229;52.354;20.886;2024-03-02T20:12:31;57.17;;;22.55;;
18206;SDS011;9229;52.354;20.886;2024-03-02T20:17:34;50.50;;;20.73;;
18206;SDS011;9229;52.354;20.886;2024-03-02T20:22:38;46.00;;;23.00;;
18206;SDS011;9229;52.354;20.886;2024-03-02T20:27:41;39.63;;;21.02;;
18206;SDS011;9229;52.354;20.886;2024-03-02T20:32:45;41.88;;;21.63;;
18206;SDS011;9229;52.354;20.886;2024-03-02T20:37:47;49.60;;;22.52;;
18206;SDS011;9229;52.354;20.886;2024-03-02T20:42:51;45.13;;;22.55;;
18206;SDS011;9229;52.354;20.886;2024-03-02T20:47:54;46.88;;;22.98;;
18206;SDS011;9229;52.354;20.886;2024-03-02T20:52:56;43.60;;;21.73;;
18206;SDS011;9229;52.354;20.886;2024-03-02T20:58:02;43.08;;;22.60;;
18206;SDS011;9229;52.354;20.886;2024-03-02T21:03:04;49.85;;;21.05;;
18206;SDS011;9229;52.354;20.886;2024-03-02T21:08:07;45.15;;;22.35;;
18206;SDS011;9229;52.354;20.886;2024-03-02T21:13:11;48.47;;;23.17;;
18206;SDS011;9229;52.354;20.886;2024-03-02T21:18:13;50.47;;;23.98;;
18206;SDS011;9229;52.354;20.886;2024-03-02T21:23:15;47.13;;;23.13;;
18206;SDS011;9229;52.354;20.886;2024-03-02T21:28:21;48.13;;;22.35;;
18206;SDS011;9229;52.354;20.886;2024-03-02T21:33:25;52.55;;;23.13;;
18206;SDS011;9229;52.354;20.886;2024-03-02T21:38:28;45.22;;;22.10;;
18206;SDS011;9229;52.354;20.886;2024-03-02T21:43:33;51.05;;;22.67;;
18206;SDS011;9229;52.354;20.886;2024-03-02T21:48:35;47.40;;;23.23;;
18206;SDS011;9229;52.354;20.886;2024-03-02T21:53:38;47.90;;;22.35;;
18206;SDS011;9229;52.354;20.886;2024-03-02T21:58:42;43.22;;;23.02;;
18206;SDS011;9229;52.354;20.886;2024-03-02T22:03:44;48.28;;;22.67;;
18206;SDS011;9229;52.354;20.886;2024-03-02T22:08:46;48.50;;;22.17;;
18206;SDS011;9229;52.354;20.886;2024-03-02T22:13:49;53.90;;;26.15;;
18206;SDS011;9229;52.354;20.886;2024-03-02T22:18:53;43.38;;;21.88;;
18206;SDS011;9229;52.354;20.886;2024-03-02T22:23:58;43.67;;;22.70;;
18206;SDS011;9229;52.354;20.886;2024-03-02T22:29:02;40.85;;;22.63;;
18206;SDS011;9229;52.354;20.886;2024-03-02T22:34:05;48.20;;;21.77;;
18206;SDS011;9229;52.354;20.886;2024-03-02T22:39:08;54.13;;;22.80;;
18206;SDS011;9229;52.354;20.886;2024-03-02T22:44:18;43.35;;;21.98;;
18206;SDS011;9229;52.354;20.886;2024-03-02T22:49:27;44.00;;;22.27;;
18206;SDS011;9229;52.354;20.886;2024-03-02T23:08:25;44.78;;;22.15;;
18206;SDS011;9229;52.354;20.886;2024-03-02T23:14:02;44.63;;;21.00;;
18206;SDS011;9229;52.354;20.886;2024-03-02T23:45:19;37.72;;;18.95;;
18206;SDS011;9229;52.354;20.886;2024-03-02T23:51:24;34.38;;;18.10;;
18206;SDS011;9229;52.354;20.886;2024-03-02T23:56:38;34.08;;;18.35;;
